createdAt,value
2022-12-15T00:02:15.589Z,99367.59
2022-12-15T00:05:01.169Z,99357.38
2022-12-15T00:07:46.594Z,99356.56
2022-12-15T00:10:32.099Z,99367.44
2022-12-15T00:13:17.272Z,99359.59
2022-12-15T00:16:05.110Z,99360.09
2022-12-15T00:18:50.051Z,99364.75
2022-12-15T00:21:35.019Z,99364.41
2022-12-15T00:24:20.378Z,99361.09
2022-12-15T00:27:05.245Z,99370.09
2022-12-15T00:29:50.154Z,99377.50
2022-12-15T00:32:35.085Z,99367.81
2022-12-15T00:35:20.396Z,99371.19
2022-12-15T00:38:05.258Z,99369.16
2022-12-15T00:40:31.930Z,99375.91
2022-12-15T00:42:58.554Z,99369.84
2022-12-15T00:45:45.226Z,99372.38
2022-12-15T00:48:11.847Z,99375.22
2022-12-15T00:50:53.803Z,99365.00
2022-12-15T00:53:42.866Z,99368.19
2022-12-15T00:56:29.000Z,99379.41
2022-12-15T00:59:14.891Z,99376.03
2022-12-15T01:02:00.450Z,99379.72
2022-12-15T01:04:46.669Z,99370.19
2022-12-15T01:07:32.782Z,99379.91
2022-12-15T01:10:18.229Z,99363.66
2022-12-15T01:13:04.728Z,99364.81
2022-12-15T01:15:50.089Z,99372.19
2022-12-15T01:18:36.021Z,99371.00
2022-12-15T01:21:08.326Z,99367.81
2022-12-15T01:23:35.670Z,99373.03
2022-12-15T01:26:03.362Z,99370.50
2022-12-15T01:28:30.034Z,99373.88
2022-12-15T01:30:56.920Z,99373.88
2022-12-15T01:33:23.733Z,99374.19
2022-12-15T01:36:00.881Z,99383.56
2022-12-15T01:38:29.183Z,99376.72
2022-12-15T01:41:02.541Z,99373.19
2022-12-15T01:43:33.104Z,99363.81
2022-12-15T01:46:11.023Z,99372.19
2022-12-15T01:48:48.676Z,99374.19
2022-12-15T01:51:20.043Z,99372.34
2022-12-15T01:54:01.631Z,99375.72
2022-12-15T01:56:37.339Z,99371.50
2022-12-15T01:59:07.628Z,99376.22
2022-12-15T02:01:34.712Z,99377.22
2022-12-15T02:04:02.416Z,99385.41
2022-12-15T02:06:30.361Z,99373.88
2022-12-15T02:09:00.125Z,99371.19
2022-12-15T02:11:44.187Z,99374.19
2022-12-15T02:14:14.741Z,99372.03
2022-12-15T02:17:05.713Z,99374.38
2022-12-15T02:19:53.976Z,99376.53
2022-12-15T02:22:39.020Z,99373.84
2022-12-15T02:25:33.540Z,99378.22
2022-12-15T02:28:08.557Z,99380.06
2022-12-15T02:30:42.823Z,99381.72
2022-12-15T02:33:15.549Z,99380.38
2022-12-15T02:35:50.075Z,99385.75
2022-12-15T02:38:28.613Z,99383.25
2022-12-15T02:41:00.115Z,99385.41
2022-12-15T02:43:29.038Z,99389.94
2022-12-15T02:46:35.736Z,99377.69
2022-12-15T02:49:39.267Z,99380.88
2022-12-15T02:52:35.173Z,99380.88
2022-12-15T02:55:20.541Z,99384.91
2022-12-15T02:58:19.270Z,99383.91
2022-12-15T03:00:52.814Z,99383.75
2022-12-15T03:03:21.902Z,99384.59
2022-12-15T03:05:53.336Z,99387.78
2022-12-15T03:08:21.183Z,99387.25
2022-12-15T03:10:51.112Z,99387.25
2022-12-15T03:13:17.756Z,99387.25
2022-12-15T03:15:44.484Z,99387.25
2022-12-15T03:18:11.129Z,99389.63
2022-12-15T03:20:37.814Z,99384.09
2022-12-15T03:23:04.490Z,99399.66
2022-12-15T03:25:31.225Z,99388.28
2022-12-15T03:27:57.867Z,99397.13
2022-12-15T03:30:24.753Z,99396.16
2022-12-15T03:32:52.665Z,99392.47
2022-12-15T03:35:19.329Z,99391.94
2022-12-15T03:37:46.076Z,99389.13
2022-12-15T03:40:16.336Z,99390.28
2022-12-15T03:42:50.622Z,99398.31
2022-12-15T03:45:20.901Z,99389.59
2022-12-15T03:47:48.491Z,99395.94
2022-12-15T03:50:18.130Z,99398.09
2022-12-15T03:52:45.198Z,99392.53
2022-12-15T03:55:12.602Z,99394.22
2022-12-15T03:57:39.241Z,99398.03
2022-12-15T04:00:07.130Z,99389.66
2022-12-15T04:02:34.010Z,99388.63
2022-12-15T04:05:00.908Z,99396.31
2022-12-15T04:07:27.552Z,99393.81
2022-12-15T04:09:54.179Z,99397.63
2022-12-15T04:12:20.925Z,99395.44
2022-12-15T04:14:47.563Z,99392.75
2022-12-15T04:17:16.579Z,99391.41
2022-12-15T04:20:01.869Z,99394.03
2022-12-15T04:22:28.521Z,99390.00
2022-12-15T04:25:13.914Z,99390.78
2022-12-15T04:28:01.729Z,99392.97
2022-12-15T04:30:48.942Z,99383.94
2022-12-15T04:33:34.806Z,99383.94
2022-12-15T04:36:21.105Z,99381.59
2022-12-15T04:39:06.293Z,99378.94
2022-12-15T04:41:51.758Z,99376.56
2022-12-15T04:44:37.022Z,99370.88
2022-12-15T04:47:22.413Z,99378.22
2022-12-15T04:50:07.990Z,99383.03
2022-12-15T04:52:53.440Z,99391.22
2022-12-15T04:55:38.986Z,99386.19
2022-12-15T04:58:26.658Z,99384.81
2022-12-15T05:01:12.486Z,99384.50
2022-12-15T05:03:57.478Z,99387.13
2022-12-15T05:06:42.373Z,99389.63
2022-12-15T05:09:27.685Z,99389.13
2022-12-15T05:12:13.269Z,99387.13
2022-12-15T05:14:58.612Z,99387.13
2022-12-15T05:17:43.666Z,99384.75
2022-12-15T05:20:29.132Z,99390.91
2022-12-15T05:23:15.605Z,99396.53
2022-12-15T05:26:01.678Z,99397.38
2022-12-15T05:28:47.686Z,99398.53
2022-12-15T05:31:33.219Z,99390.31
2022-12-15T05:34:05.131Z,99404.03
2022-12-15T05:36:32.574Z,99404.19
2022-12-15T05:38:59.221Z,99402.34
2022-12-15T05:41:25.886Z,99399.38
2022-12-15T05:43:52.596Z,99403.03
2022-12-15T05:46:19.877Z,99406.09
2022-12-15T05:48:46.873Z,99399.84
2022-12-15T05:51:14.058Z,99403.47
2022-12-15T05:53:41.798Z,99405.31
2022-12-15T05:56:11.450Z,99408.47
2022-12-15T05:58:44.782Z,99406.50
2022-12-15T06:01:14.823Z,99412.66
2022-12-15T06:03:42.260Z,99401.75
2022-12-15T06:06:10.354Z,99410.00
2022-12-15T06:08:39.264Z,99415.97
2022-12-15T06:11:06.191Z,99409.38
2022-12-15T06:13:37.107Z,99400.88
2022-12-15T06:16:08.106Z,99400.19
2022-12-15T06:18:37.902Z,99401.00
2022-12-15T06:21:07.624Z,99400.47
2022-12-15T06:23:35.248Z,99397.34
2022-12-15T06:26:31.644Z,99400.19
2022-12-15T06:29:02.644Z,99409.63
2022-12-15T06:31:30.623Z,99417.19
2022-12-15T06:34:02.168Z,99415.19
2022-12-15T06:36:30.798Z,99418.69
2022-12-15T06:39:06.212Z,99419.22
2022-12-15T06:41:33.544Z,99423.25
2022-12-15T06:44:01.079Z,99423.72
2022-12-15T06:46:30.046Z,99425.41
2022-12-15T06:48:57.450Z,99419.09
2022-12-15T06:51:25.267Z,99432.28
2022-12-15T06:53:55.545Z,99435.47
2022-12-15T06:56:42.544Z,99442.47
2022-12-15T06:59:11.217Z,99439.97
2022-12-15T07:01:38.667Z,99445.69
2022-12-15T07:04:06.094Z,99441.03
2022-12-15T07:06:36.732Z,99441.03
2022-12-15T07:09:05.537Z,99442.03
2022-12-15T07:11:32.160Z,99435.97
2022-12-15T07:13:58.956Z,99437.59
2022-12-15T07:16:25.666Z,99434.25
2022-12-15T07:18:52.387Z,99433.28
2022-12-15T07:21:19.089Z,99434.94
2022-12-15T07:23:54.774Z,99433.09
2022-12-15T07:26:22.960Z,99438.91
2022-12-15T07:28:49.704Z,99433.09
2022-12-15T07:31:16.496Z,99434.78
2022-12-15T07:33:43.208Z,99436.91
2022-12-15T07:36:11.137Z,99435.59
2022-12-15T07:38:37.956Z,99447.28
2022-12-15T07:41:06.918Z,99432.94
2022-12-15T07:43:34.511Z,99448.44
2022-12-15T07:46:02.057Z,99447.56
2022-12-15T07:48:29.725Z,99436.69
2022-12-15T07:51:07.533Z,99445.91
2022-12-15T07:53:36.982Z,99442.88
2022-12-15T07:56:08.078Z,99442.25
2022-12-15T07:58:35.629Z,99445.25
2022-12-15T08:01:04.674Z,99440.91
2022-12-15T08:03:31.884Z,99461.09
2022-12-15T08:06:03.886Z,99456.03
2022-12-15T08:08:31.401Z,99453.91
2022-12-15T08:10:58.452Z,99461.09
2022-12-15T08:14:00.171Z,99461.91
2022-12-15T08:16:12.502Z,99466.44
2022-12-15T08:18:39.616Z,99460.25
2022-12-15T08:21:08.342Z,99463.53
2022-12-15T08:23:36.147Z,99456.28
2022-12-15T08:26:06.006Z,99462.25
2022-12-15T08:28:34.433Z,99464.47
2022-12-15T08:31:09.638Z,99467.25
2022-12-15T08:33:37.671Z,99460.78
2022-12-15T08:36:08.415Z,99468.25
2022-12-15T08:38:36.763Z,99482.28
2022-12-15T08:41:10.591Z,99480.16
2022-12-15T08:43:42.533Z,99486.31
2022-12-15T08:46:15.745Z,99479.47
2022-12-15T08:48:44.511Z,99495.03
2022-12-15T08:51:12.285Z,99493.34
2022-12-15T08:53:39.031Z,99494.19
2022-12-15T08:56:08.266Z,99498.38
2022-12-15T08:58:35.097Z,99490.34
2022-12-15T09:01:06.534Z,99495.78
2022-12-15T09:03:35.144Z,99494.94
2022-12-15T09:06:07.834Z,99490.28
2022-12-15T09:08:35.005Z,99497.16
2022-12-15T09:11:02.177Z,99497.91
2022-12-15T09:13:29.705Z,99501.78
2022-12-15T09:16:10.699Z,99505.81
2022-12-15T09:18:37.772Z,99504.38
2022-12-15T09:21:07.160Z,99511.13
2022-12-15T09:23:36.427Z,99514.81
2022-12-15T09:26:11.970Z,99514.81
2022-12-15T09:28:38.799Z,99520.19
2022-12-15T09:31:07.961Z,99528.09
2022-12-15T09:33:35.053Z,99530.97
2022-12-15T09:36:03.591Z,99540.41
2022-12-15T09:38:31.275Z,99541.97
2022-12-15T09:40:58.243Z,99534.69
2022-12-15T09:43:37.167Z,99542.97
2022-12-15T09:46:20.050Z,99547.19
2022-12-15T09:48:51.344Z,99559.13
2022-12-15T09:51:19.019Z,99564.81
2022-12-15T09:53:55.791Z,99565.03
2022-12-15T09:56:32.727Z,99559.75
2022-12-15T09:59:26.622Z,99569.16
2022-12-15T10:02:17.657Z,99561.66
2022-12-15T10:04:47.803Z,99563.50
2022-12-15T10:07:50.546Z,99573.25
2022-12-15T10:10:46.594Z,99568.09
2022-12-15T10:13:19.953Z,99575.63
2022-12-15T10:15:53.557Z,99569.78
2022-12-15T10:18:25.102Z,99572.47
2022-12-15T10:20:55.900Z,99580.66
2022-12-15T10:23:25.806Z,99582.31
2022-12-15T10:26:12.127Z,99575.59
2022-12-15T10:29:21.390Z,99579.53
2022-12-15T10:31:56.699Z,99582.28
2022-12-15T10:34:29.806Z,99583.53
2022-12-15T10:36:57.773Z,99574.91
2022-12-15T10:39:37.012Z,99575.91
2022-12-15T10:42:15.505Z,99567.59
2022-12-15T10:44:45.630Z,99557.63
2022-12-15T10:47:29.933Z,99557.88
2022-12-15T10:50:24.098Z,99545.38
2022-12-15T10:52:51.926Z,99542.97
2022-12-15T10:55:37.475Z,99552.50
2022-12-15T10:58:15.633Z,99552.44
2022-12-15T11:00:42.692Z,99554.03
2022-12-15T11:03:26.735Z,99551.63
2022-12-15T11:05:56.597Z,99546.81
2022-12-15T11:08:25.150Z,99549.78
2022-12-15T11:11:15.634Z,99556.94
2022-12-15T11:13:43.857Z,99560.75
2022-12-15T11:16:19.262Z,99556.69
2022-12-15T11:19:02.921Z,99569.38
2022-12-15T11:21:35.198Z,99563.94
2022-12-15T11:24:04.880Z,99558.53
2022-12-15T11:27:26.925Z,99562.91
2022-12-15T11:30:02.606Z,99564.00
2022-12-15T11:32:34.702Z,99561.63
2022-12-15T11:35:01.534Z,99553.97
2022-12-15T11:37:36.871Z,99556.13
2022-12-15T11:40:31.378Z,99539.03
2022-12-15T11:43:27.013Z,99541.72
2022-12-15T11:46:16.128Z,99545.34
2022-12-15T11:49:44.557Z,99528.78
2022-12-15T11:52:24.496Z,99544.22
2022-12-15T11:54:59.924Z,99532.88
2022-12-15T11:58:03.349Z,99533.97
2022-12-15T12:00:35.296Z,99531.53
2022-12-15T12:03:11.716Z,99537.59
2022-12-15T12:05:59.482Z,99539.53
2022-12-15T12:09:07.715Z,99536.44
2022-12-15T12:11:42.940Z,99543.41
2022-12-15T12:14:15.830Z,99539.28
2022-12-15T12:16:56.460Z,99532.88
2022-12-15T12:19:23.174Z,99521.88
2022-12-15T12:21:56.242Z,99527.91
2022-12-15T12:24:50.521Z,99522.41
2022-12-15T12:27:53.291Z,99520.78
2022-12-15T12:30:25.154Z,99513.56
2022-12-15T12:33:03.283Z,99514.19
2022-12-15T12:35:46.903Z,99517.97
2022-12-15T12:38:20.263Z,99512.66
2022-12-15T12:41:02.660Z,99508.91
2022-12-15T12:43:39.125Z,99514.56
2022-12-15T12:46:25.531Z,99511.66
2022-12-15T12:48:57.128Z,99520.66
2022-12-15T12:51:40.250Z,99519.44
2022-12-15T12:54:35.378Z,99522.41
2022-12-15T12:57:14.246Z,99519.50
2022-12-15T12:59:56.735Z,99524.88
2022-12-15T13:02:26.343Z,99528.22
2022-12-15T13:05:00.490Z,99533.44
2022-12-15T13:07:46.339Z,99528.50
2022-12-15T13:10:21.428Z,99539.53
2022-12-15T13:12:58.724Z,99531.03
2022-12-15T13:15:31.370Z,99532.06
2022-12-15T13:18:20.467Z,99536.03
2022-12-15T13:20:50.697Z,99529.81
2022-12-15T13:23:36.963Z,99536.69
2022-12-15T13:26:11.411Z,99531.28
2022-12-15T13:28:39.441Z,99533.34
2022-12-15T13:31:20.127Z,99529.44
2022-12-15T13:33:50.170Z,99521.75
2022-12-15T13:36:35.040Z,99533.81
2022-12-15T13:39:01.949Z,99533.41
2022-12-15T13:41:28.587Z,99535.91
2022-12-15T13:43:57.304Z,99532.97
2022-12-15T13:46:26.335Z,99537.94
2022-12-15T13:49:33.698Z,99539.22
2022-12-15T13:52:44.356Z,99538.41
2022-12-15T13:55:27.789Z,99530.75
2022-12-15T13:58:00.846Z,99525.97
2022-12-15T14:00:27.558Z,99525.78
2022-12-15T14:03:07.116Z,99524.31
2022-12-15T14:05:33.985Z,99519.72
2022-12-15T14:08:03.524Z,99523.69
2022-12-15T14:10:33.201Z,99524.88
2022-12-15T14:15:58.351Z,99514.06
2022-12-15T14:18:41.763Z,99519.84
2022-12-15T14:21:32.508Z,99517.16
2022-12-15T14:24:36.860Z,99522.09
2022-12-15T14:26:53.755Z,99519.22
2022-12-15T14:29:21.197Z,99524.63
2022-12-15T14:31:58.306Z,99525.38
2022-12-15T14:34:41.990Z,99535.72
2022-12-15T14:37:15.633Z,99536.97
2022-12-15T14:39:50.302Z,99537.34
2022-12-15T14:42:26.562Z,99533.59
2022-12-15T14:44:57.657Z,99535.69
2022-12-15T14:47:28.849Z,99533.56
2022-12-15T14:49:57.934Z,99527.34
2022-12-15T14:52:36.287Z,99530.41
2022-12-15T14:55:21.679Z,99531.00
2022-12-15T14:57:48.799Z,99533.91
2022-12-15T15:00:34.040Z,99536.81
2022-12-15T15:03:05.833Z,99512.44
2022-12-15T15:06:05.798Z,99541.09
2022-12-15T15:08:36.624Z,99531.72
2022-12-15T15:11:30.875Z,99532.88
2022-12-15T15:14:02.971Z,99536.47
2022-12-15T15:16:30.095Z,99532.47
2022-12-15T15:18:59.685Z,99530.19
2022-12-15T15:21:29.703Z,99537.88
2022-12-15T15:24:04.250Z,99540.88
2022-12-15T15:26:32.262Z,99549.72
2022-12-15T15:28:59.058Z,99548.25
2022-12-15T15:31:25.781Z,99556.53
2022-12-15T15:33:57.056Z,99558.59
2022-12-15T15:36:44.118Z,99557.28
2022-12-15T15:39:20.181Z,99559.81
2022-12-15T15:41:46.817Z,99567.16
2022-12-15T15:44:15.736Z,99577.00
2022-12-15T15:46:50.395Z,99583.53
2022-12-15T15:49:20.293Z,99582.31
2022-12-15T15:51:47.438Z,99591.41
2022-12-15T15:54:21.278Z,99584.47
2022-12-15T15:56:47.882Z,99590.97
2022-12-15T15:59:16.952Z,99590.00
2022-12-15T16:01:45.220Z,99591.31
2022-12-15T16:04:12.362Z,99587.16
2022-12-15T16:06:47.003Z,99582.97
2022-12-15T16:09:15.640Z,99593.84
2022-12-15T16:11:47.100Z,99591.31
2022-12-15T16:14:16.667Z,99592.06
2022-12-15T16:16:44.188Z,99585.84
2022-12-15T16:19:14.427Z,99593.94
2022-12-15T16:21:43.050Z,99589.94
2022-12-15T16:24:18.819Z,99591.31
2022-12-15T16:26:49.220Z,99597.75
2022-12-15T16:29:18.769Z,99592.34
2022-12-15T16:31:46.042Z,99600.63
2022-12-15T16:34:16.529Z,99599.13
2022-12-15T16:36:44.747Z,99606.19
2022-12-15T16:39:24.015Z,99595.13
2022-12-15T16:41:52.586Z,99595.75
2022-12-15T16:44:19.384Z,99603.75
2022-12-15T16:46:46.247Z,99598.00
2022-12-15T16:49:12.949Z,99602.25
2022-12-15T16:51:43.734Z,99619.91
2022-12-15T16:54:17.885Z,99618.06
2022-12-15T16:56:44.591Z,99618.41
2022-12-15T16:59:32.570Z,99612.03
2022-12-15T17:02:00.228Z,99616.28
2022-12-15T17:04:26.942Z,99618.31
2022-12-15T17:06:53.726Z,99622.34
2022-12-15T17:09:25.791Z,99626.88
2022-12-15T17:11:52.657Z,99640.97
2022-12-15T17:14:19.317Z,99634.13
2022-12-15T17:16:45.969Z,99643.03
2022-12-15T17:19:16.295Z,99642.22
2022-12-15T17:21:48.747Z,99650.84
2022-12-15T17:24:20.044Z,99654.72
2022-12-15T17:26:47.137Z,99657.03
2022-12-15T17:29:25.350Z,99658.91
2022-12-15T17:31:52.445Z,99657.41
2022-12-15T17:34:24.560Z,99655.75
2022-12-15T17:36:51.691Z,99671.06
2022-12-15T17:39:21.703Z,99667.34
2022-12-15T17:42:01.099Z,99666.97
2022-12-15T17:44:37.369Z,99665.66
2022-12-15T17:47:07.697Z,99664.00
2022-12-15T17:49:37.574Z,99658.31
2022-12-15T17:52:16.699Z,99664.72
2022-12-15T17:54:43.930Z,99666.38
2022-12-15T17:57:13.661Z,99663.41
2022-12-15T17:59:40.335Z,99671.47
2022-12-15T18:02:11.539Z,99669.16
2022-12-15T18:04:38.335Z,99664.78
2022-12-15T18:07:05.273Z,99663.78
2022-12-15T18:09:32.194Z,99667.47
2022-12-15T18:11:58.808Z,99661.25
2022-12-15T18:14:27.459Z,99663.41
2022-12-15T18:16:54.078Z,99668.50
2022-12-15T18:19:20.716Z,99675.53
2022-12-15T18:21:47.478Z,99673.59
2022-12-15T18:24:17.107Z,99663.16
2022-12-15T18:26:43.814Z,99677.00
2022-12-15T18:29:18.102Z,99673.28
2022-12-15T18:31:47.143Z,99672.25
2022-12-15T18:34:21.213Z,99676.81
2022-12-15T18:36:48.428Z,99685.44
2022-12-15T18:39:23.780Z,99692.47
2022-12-15T18:41:51.862Z,99704.44
2022-12-15T18:44:24.885Z,99704.44
2022-12-15T18:46:51.977Z,99708.81
2022-12-15T18:49:18.894Z,99712.69
2022-12-15T18:51:47.204Z,99722.13
2022-12-15T18:54:18.337Z,99715.44
2022-12-15T18:56:45.311Z,99728.25
2022-12-15T18:59:16.668Z,99725.56
2022-12-15T19:01:46.108Z,99731.34
2022-12-15T19:04:13.991Z,99743.59
2022-12-15T19:06:41.055Z,99735.19
2022-12-15T19:09:17.425Z,99742.78
2022-12-15T19:12:16.628Z,99745.84
2022-12-15T19:14:45.091Z,99743.84
2022-12-15T19:17:33.028Z,99753.22
2022-12-15T19:20:18.235Z,99751.56
2022-12-15T19:22:46.682Z,99759.28
2022-12-15T19:25:25.909Z,99762.13
2022-12-15T19:27:59.705Z,99763.66
2022-12-15T19:30:41.693Z,99764.00
2022-12-15T19:33:09.775Z,99766.06
2022-12-15T19:35:37.860Z,99764.38
2022-12-15T19:38:05.105Z,99770.59
2022-12-15T19:40:33.610Z,99778.81
2022-12-15T19:43:00.945Z,99779.00
2022-12-15T19:45:30.442Z,99790.28
2022-12-15T19:47:58.035Z,99785.91
2022-12-15T19:50:29.287Z,99784.78
2022-12-15T19:53:00.246Z,99789.97
2022-12-15T19:55:32.788Z,99786.28
2022-12-15T19:58:01.086Z,99784.28
2022-12-15T20:00:27.913Z,99792.00
2022-12-15T20:02:55.855Z,99795.53
2022-12-15T20:05:24.574Z,99794.00
2022-12-15T20:07:54.689Z,99801.09
2022-12-15T20:10:31.935Z,99799.41
2022-12-15T20:13:00.791Z,99802.78
2022-12-15T20:15:27.857Z,99801.13
2022-12-15T20:17:57.985Z,99807.34
2022-12-15T20:20:27.163Z,99810.22
2022-12-15T20:22:56.524Z,99812.22
2022-12-15T20:25:29.079Z,99809.38
2022-12-15T20:27:57.037Z,99797.63
2022-12-15T20:30:27.356Z,99803.81
2022-12-15T20:32:54.105Z,99808.38
2022-12-15T20:35:22.422Z,99813.59
2022-12-15T20:37:49.799Z,99813.41
2022-12-15T20:40:29.593Z,99816.44
2022-12-15T20:42:56.736Z,99820.63
2022-12-15T20:45:26.547Z,99833.72
2022-12-15T20:47:55.669Z,99829.69
2022-12-15T20:50:32.706Z,99834.06
2022-12-15T20:52:59.657Z,99838.09
2022-12-15T20:55:26.433Z,99838.44
2022-12-15T20:57:53.970Z,99845.31
2022-12-15T21:00:22.439Z,99849.81
2022-12-15T21:02:49.861Z,99849.16
2022-12-15T21:05:22.470Z,99854.38
2022-12-15T21:07:49.989Z,99848.84
2022-12-15T21:10:18.805Z,99853.22
2022-12-15T21:12:48.334Z,99847.50
2022-12-15T21:15:23.159Z,99857.56
2022-12-15T21:18:11.265Z,99865.63
2022-12-15T21:20:53.416Z,99867.63
2022-12-15T21:23:27.445Z,99864.78
2022-12-15T21:25:57.346Z,99862.59
2022-12-15T21:28:25.212Z,99865.94
2022-12-15T21:30:52.963Z,99861.56
2022-12-15T21:33:20.631Z,99860.91
2022-12-15T21:35:48.534Z,99862.91
2022-12-15T21:38:32.442Z,99864.25
2022-12-15T21:41:02.132Z,99876.84
2022-12-15T21:43:32.399Z,99871.81
2022-12-15T21:46:00.853Z,99876.34
2022-12-15T21:48:46.315Z,99869.28
2022-12-15T21:51:15.831Z,99878.66
2022-12-15T21:53:43.378Z,99877.66
2022-12-15T21:56:17.411Z,99880.50
2022-12-15T21:58:46.112Z,99875.97
2022-12-15T22:01:15.109Z,99880.34
2022-12-15T22:03:44.977Z,99879.81
2022-12-15T22:06:19.093Z,99885.34
2022-12-15T22:08:45.943Z,99879.16
2022-12-15T22:11:20.516Z,99877.63
2022-12-15T22:13:48.211Z,99881.97
2022-12-15T22:16:14.945Z,99876.44
2022-12-15T22:18:41.629Z,99876.25
2022-12-15T22:21:08.495Z,99872.56
2022-12-15T22:23:36.030Z,99874.25
2022-12-15T22:26:03.368Z,99880.44
2022-12-15T22:28:30.454Z,99878.56
2022-12-15T22:30:58.243Z,99885.97
2022-12-15T22:33:26.335Z,99889.66
2022-12-15T22:35:55.372Z,99890.31
2022-12-15T22:38:23.562Z,99893.31
2022-12-15T22:40:56.616Z,99891.94
2022-12-15T22:43:41.737Z,99897.31
2022-12-15T22:46:12.634Z,99889.66
2022-12-15T22:48:42.455Z,99887.31
2022-12-15T22:51:13.018Z,99903.53
2022-12-15T22:53:39.777Z,99902.00
2022-12-15T22:56:30.679Z,99904.16
2022-12-15T22:59:06.078Z,99916.22
2022-12-15T23:01:32.807Z,99910.03
2022-12-15T23:03:59.724Z,99900.47
2022-12-15T23:06:27.363Z,99909.34
2022-12-15T23:08:55.907Z,99910.38
2022-12-15T23:11:38.860Z,99909.31
2022-12-15T23:14:08.811Z,99916.50
2022-12-15T23:16:36.073Z,99913.34
2022-12-15T23:19:03.846Z,99905.50
2022-12-15T23:21:30.989Z,99908.69
2022-12-15T23:23:57.869Z,99904.38
2022-12-15T23:26:26.274Z,99908.56
2022-12-15T23:28:54.070Z,99914.81
2022-12-15T23:31:22.243Z,99915.59
2022-12-15T23:33:49.896Z,99909.09
2022-12-15T23:36:19.095Z,99908.91
2022-12-15T23:38:46.207Z,99909.22
2022-12-15T23:41:17.999Z,99902.31
2022-12-15T23:43:45.074Z,99902.28
2022-12-15T23:46:12.375Z,99901.75
2022-12-15T23:48:42.062Z,99906.44
2022-12-15T23:51:14.794Z,99901.38
2022-12-15T23:53:43.617Z,99900.19
2022-12-15T23:56:16.379Z,99897.50
2022-12-15T23:58:45.061Z,99900.34
